createdAt,value
2023-03-22T00:02:27.017Z,9.69
2023-03-22T00:04:54.018Z,9.64
2023-03-22T00:07:20.947Z,9.63
2023-03-22T00:09:47.790Z,9.45
2023-03-22T00:12:14.601Z,9.31
2023-03-22T00:14:41.434Z,9.23
2023-03-22T00:17:08.251Z,9.19
2023-03-22T00:19:35.032Z,9.17
2023-03-22T00:22:05.562Z,9.12
2023-03-22T00:24:32.929Z,9.16
2023-03-22T00:27:00.879Z,9.01
2023-03-22T00:29:27.730Z,8.93
2023-03-22T00:31:55.935Z,9.00
2023-03-22T00:34:22.780Z,9.05
2023-03-22T00:36:49.594Z,9.04
2023-03-22T00:39:16.348Z,8.95
2023-03-22T00:41:43.256Z,8.92
2023-03-22T00:44:10.333Z,8.92
2023-03-22T00:46:37.500Z,8.93
2023-03-22T00:49:04.356Z,8.95
2023-03-22T00:51:31.183Z,8.92
2023-03-22T00:53:57.926Z,8.91
2023-03-22T00:56:25.457Z,8.84
2023-03-22T00:58:52.230Z,8.85
2023-03-22T01:01:19.012Z,8.83
2023-03-22T01:03:49.696Z,8.88
2023-03-22T01:06:17.148Z,8.81
2023-03-22T01:08:44.117Z,8.77
2023-03-22T01:11:10.884Z,8.63
2023-03-22T01:13:39.287Z,8.57
2023-03-22T01:16:08.210Z,8.66
2023-03-22T01:18:36.161Z,8.68
2023-03-22T01:21:03.459Z,8.64
2023-03-22T01:23:30.658Z,8.61
2023-03-22T01:25:57.670Z,8.56
2023-03-22T01:28:26.987Z,8.49
2023-03-22T01:30:55.584Z,8.53
2023-03-22T01:33:22.804Z,8.52
2023-03-22T01:35:49.575Z,8.47
2023-03-22T01:38:16.518Z,8.45
2023-03-22T01:40:43.313Z,8.43
2023-03-22T01:43:15.634Z,8.43
2023-03-22T01:45:53.254Z,8.45
2023-03-22T01:48:26.458Z,8.43
2023-03-22T01:51:26.090Z,8.36
2023-03-22T01:54:00.387Z,8.37
2023-03-22T01:56:32.707Z,8.29
2023-03-22T01:59:01.068Z,8.27
2023-03-22T02:01:28.414Z,8.26
2023-03-22T02:04:16.768Z,8.32
2023-03-22T02:06:44.445Z,8.36
2023-03-22T02:09:14.195Z,8.35
2023-03-22T02:11:48.831Z,8.28
2023-03-22T02:14:55.396Z,8.25
2023-03-22T02:17:53.778Z,8.28
2023-03-22T02:21:19.866Z,8.31
2023-03-22T02:24:32.692Z,8.37
2023-03-22T02:27:29.708Z,8.31
2023-03-22T02:30:18.004Z,8.25
2023-03-22T02:33:00.612Z,8.20
2023-03-22T02:36:24.363Z,8.11
2023-03-22T02:39:21.499Z,8.13
2023-03-22T02:42:03.229Z,8.15
2023-03-22T02:44:52.575Z,8.11
2023-03-22T02:47:38.502Z,8.05
2023-03-22T02:50:37.609Z,8.01
2023-03-22T02:53:42.311Z,8.00
2023-03-22T02:56:34.462Z,8.01
2023-03-22T02:59:07.399Z,8.04
2023-03-22T03:01:46.028Z,8.07
2023-03-22T03:04:20.965Z,8.03
2023-03-22T03:06:52.141Z,7.97
2023-03-22T03:09:21.046Z,7.97
2023-03-22T03:11:51.715Z,7.98
2023-03-22T03:14:32.843Z,7.91
2023-03-22T03:16:59.506Z,7.92
2023-03-22T03:19:40.768Z,7.68
2023-03-22T03:22:13.314Z,7.70
2023-03-22T03:25:03.119Z,7.75
2023-03-22T03:27:49.790Z,7.75
2023-03-22T03:30:31.940Z,7.80
2023-03-22T03:33:09.223Z,7.85
2023-03-22T03:35:53.245Z,7.73
2023-03-22T03:38:26.968Z,7.65
2023-03-22T03:41:13.802Z,7.69
2023-03-22T03:43:42.727Z,7.68
2023-03-22T03:46:10.270Z,7.64
2023-03-22T03:48:42.457Z,7.53
2023-03-22T03:51:09.355Z,7.45
2023-03-22T03:53:36.272Z,7.50
2023-03-22T03:56:03.090Z,7.54
2023-03-22T03:58:30.702Z,7.64
2023-03-22T04:00:58.313Z,7.70
2023-03-22T04:03:25.365Z,7.75
2023-03-22T04:05:52.492Z,7.75
2023-03-22T04:08:19.313Z,7.77
2023-03-22T04:10:51.680Z,7.76
2023-03-22T04:13:21.578Z,7.74
2023-03-22T04:15:54.325Z,7.70
2023-03-22T04:18:21.774Z,7.68
2023-03-22T04:20:49.481Z,7.64
2023-03-22T04:23:16.673Z,7.59
2023-03-22T04:25:43.655Z,7.57
2023-03-22T04:28:10.423Z,7.54
2023-03-22T04:30:37.402Z,7.59
2023-03-22T04:33:08.475Z,7.56
2023-03-22T04:35:35.401Z,7.54
2023-03-22T04:38:02.375Z,7.55
2023-03-22T04:40:35.122Z,7.53
2023-03-22T04:43:04.095Z,7.49
2023-03-22T04:45:32.297Z,7.51
2023-03-22T04:48:00.578Z,7.55
2023-03-22T04:50:28.191Z,7.56
2023-03-22T04:52:55.103Z,7.54
2023-03-22T04:55:22.010Z,7.49
2023-03-22T04:57:49.026Z,7.43
2023-03-22T05:00:17.224Z,7.39
2023-03-22T05:02:44.127Z,7.32
2023-03-22T05:05:11.269Z,7.37
2023-03-22T05:07:39.210Z,7.47
2023-03-22T05:10:07.718Z,7.42
2023-03-22T05:12:34.505Z,7.36
2023-03-22T05:15:03.598Z,7.37
2023-03-22T05:17:30.548Z,7.31
2023-03-22T05:19:57.373Z,7.30
2023-03-22T05:22:24.411Z,7.35
2023-03-22T05:24:51.274Z,7.36
2023-03-22T05:27:31.145Z,7.36
2023-03-22T05:29:58.120Z,7.28
2023-03-22T05:32:25.600Z,7.36
2023-03-22T05:34:52.435Z,7.36
2023-03-22T05:37:21.004Z,7.35
2023-03-22T05:39:47.742Z,7.43
2023-03-22T05:42:14.673Z,7.43
2023-03-22T05:44:41.443Z,7.45
2023-03-22T05:47:08.175Z,7.47
2023-03-22T05:49:34.897Z,7.44
2023-03-22T05:52:04.226Z,7.42
2023-03-22T05:54:31.187Z,7.42
2023-03-22T05:56:57.969Z,7.42
2023-03-22T05:59:24.823Z,7.39
2023-03-22T06:01:51.852Z,7.44
2023-03-22T06:04:18.658Z,7.44
2023-03-22T06:06:45.518Z,7.51
2023-03-22T06:09:17.623Z,7.53
2023-03-22T06:11:44.547Z,7.44
2023-03-22T06:14:11.922Z,7.36
2023-03-22T06:16:38.862Z,7.25
2023-03-22T06:19:05.733Z,7.28
2023-03-22T06:21:32.596Z,7.32
2023-03-22T06:23:59.351Z,7.45
2023-03-22T06:26:26.182Z,7.38
2023-03-22T06:28:53.020Z,7.32
2023-03-22T06:31:19.884Z,7.32
2023-03-22T06:33:46.745Z,7.39
2023-03-22T06:36:13.511Z,7.49
2023-03-22T06:38:40.232Z,7.57
2023-03-22T06:41:07.132Z,7.67
2023-03-22T06:43:33.932Z,7.73
2023-03-22T06:46:00.946Z,7.74
2023-03-22T06:48:28.122Z,7.78
2023-03-22T06:50:55.103Z,7.90
2023-03-22T06:53:22.211Z,8.02
2023-03-22T06:55:49.027Z,8.12
2023-03-22T06:58:15.826Z,8.17
2023-03-22T07:00:42.814Z,8.20
2023-03-22T07:03:09.607Z,8.32
2023-03-22T07:05:36.436Z,8.42
2023-03-22T07:08:03.742Z,8.51
2023-03-22T07:10:30.623Z,8.60
2023-03-22T07:12:57.966Z,8.64
2023-03-22T07:15:24.855Z,8.67
2023-03-22T07:17:52.251Z,8.76
2023-03-22T07:20:20.154Z,8.87
2023-03-22T07:22:47.196Z,8.95
2023-03-22T07:25:13.986Z,9.06
2023-03-22T07:27:41.930Z,9.14
2023-03-22T07:30:12.752Z,9.20
2023-03-22T07:32:41.446Z,9.31
2023-03-22T07:35:08.778Z,9.43
2023-03-22T07:37:38.612Z,9.53
2023-03-22T07:40:06.888Z,9.68
2023-03-22T07:42:34.700Z,9.86
2023-03-22T07:45:03.815Z,10.06
2023-03-22T07:47:40.917Z,10.21
2023-03-22T07:50:12.366Z,10.31
2023-03-22T07:52:42.734Z,10.43
2023-03-22T07:55:13.279Z,10.59
2023-03-22T07:57:43.314Z,10.77
2023-03-22T08:00:11.938Z,11.00
2023-03-22T08:02:38.979Z,11.19
2023-03-22T08:05:07.217Z,11.43
2023-03-22T08:07:34.174Z,11.66
2023-03-22T08:10:01.010Z,11.87
2023-03-22T08:12:28.101Z,12.10
2023-03-22T08:14:55.016Z,12.41
2023-03-22T08:17:22.125Z,12.79
2023-03-22T08:19:49.895Z,13.16
2023-03-22T08:22:16.693Z,13.50
2023-03-22T08:24:43.557Z,13.80
2023-03-22T08:27:10.571Z,14.06
2023-03-22T08:29:37.407Z,14.33
2023-03-22T08:32:05.689Z,14.58
2023-03-22T08:34:37.496Z,14.76
2023-03-22T08:37:06.384Z,14.95
2023-03-22T08:39:34.094Z,15.08
2023-03-22T08:42:01.091Z,15.25
2023-03-22T08:44:28.219Z,15.49
2023-03-22T08:46:55.517Z,15.77
2023-03-22T08:49:23.211Z,15.85
2023-03-22T08:51:50.085Z,15.89
2023-03-22T08:54:17.210Z,16.11
2023-03-22T08:56:44.067Z,16.35
2023-03-22T08:59:11.057Z,16.60
2023-03-22T09:01:38.306Z,16.79
2023-03-22T09:04:05.787Z,16.95
2023-03-22T09:06:32.814Z,17.18
2023-03-22T09:09:00.100Z,17.35
2023-03-22T09:11:28.234Z,17.43
2023-03-22T09:13:55.309Z,17.57
2023-03-22T09:16:22.212Z,17.54
2023-03-22T09:18:49.041Z,17.65
2023-03-22T09:21:16.024Z,17.78
2023-03-22T09:23:47.602Z,17.82
2023-03-22T09:26:14.995Z,17.88
2023-03-22T09:28:42.011Z,17.81
2023-03-22T09:31:10.947Z,17.80
2023-03-22T09:33:39.721Z,17.79
2023-03-22T09:36:07.314Z,18.00
2023-03-22T09:38:35.581Z,18.21
2023-03-22T09:41:46.312Z,18.41
2023-03-22T09:44:24.411Z,18.26
2023-03-22T09:46:56.615Z,18.23
2023-03-22T09:49:30.492Z,18.21
2023-03-22T09:51:58.607Z,18.39
2023-03-22T09:54:39.021Z,18.69
2023-03-22T09:57:28.746Z,18.90
2023-03-22T10:00:14.486Z,18.93
2023-03-22T10:03:01.806Z,19.15
2023-03-22T10:05:53.096Z,19.39
2023-03-22T10:08:48.008Z,19.24
2023-03-22T10:11:34.478Z,18.98
2023-03-22T10:14:30.372Z,19.08
2023-03-22T10:17:05.488Z,18.95
2023-03-22T10:20:05.401Z,19.04
2023-03-22T10:22:40.986Z,19.18
2023-03-22T10:25:15.370Z,19.28
2023-03-22T10:27:42.942Z,19.36
2023-03-22T10:30:30.104Z,19.39
2023-03-22T10:33:33.530Z,19.34
2023-03-22T10:36:02.899Z,19.09
2023-03-22T10:38:34.326Z,19.26
2023-03-22T10:41:02.868Z,19.50
2023-03-22T10:43:39.105Z,19.50
2023-03-22T10:46:15.518Z,19.48
2023-03-22T10:48:47.000Z,19.77
2023-03-22T10:51:40.969Z,20.13
2023-03-22T10:54:14.959Z,20.69
2023-03-22T10:56:43.879Z,20.91
2023-03-22T10:59:49.836Z,20.98
2023-03-22T11:02:31.778Z,20.82
2023-03-22T11:05:03.785Z,20.57
2023-03-22T11:07:42.934Z,20.23
2023-03-22T11:10:09.729Z,20.18
2023-03-22T11:12:54.842Z,20.13
2023-03-22T11:15:28.686Z,20.40
2023-03-22T11:18:03.227Z,20.66
2023-03-22T11:20:32.837Z,20.90
2023-03-22T11:23:06.766Z,20.82
2023-03-22T11:25:37.943Z,21.08
2023-03-22T11:28:04.708Z,21.02
2023-03-22T11:30:33.860Z,21.11
2023-03-22T11:33:21.922Z,21.80
2023-03-22T11:35:56.743Z,22.06
2023-03-22T11:38:25.484Z,21.91
2023-03-22T11:41:01.973Z,21.19
2023-03-22T11:43:40.674Z,20.78
2023-03-22T11:46:09.206Z,20.78
2023-03-22T11:48:37.596Z,20.93
2023-03-22T11:51:17.048Z,20.87
2023-03-22T11:53:48.141Z,20.72
2023-03-22T11:56:28.805Z,20.09
2023-03-22T11:59:14.664Z,20.03
2023-03-22T12:01:58.565Z,19.96
2023-03-22T12:04:31.658Z,20.06
2023-03-22T12:07:04.095Z,20.39
2023-03-22T12:09:59.738Z,20.83
2023-03-22T12:12:32.842Z,21.86
2023-03-22T12:15:15.431Z,22.51
2023-03-22T12:17:53.072Z,23.26
2023-03-22T12:20:39.090Z,24.22
2023-03-22T12:23:21.818Z,24.70
2023-03-22T12:26:18.155Z,24.56
2023-03-22T12:29:04.828Z,24.35
2023-03-22T12:31:52.634Z,24.52
2023-03-22T12:34:32.343Z,25.05
2023-03-22T12:37:03.327Z,25.46
2023-03-22T12:39:38.990Z,25.39
2023-03-22T12:42:29.282Z,24.93
2023-03-22T12:45:06.228Z,23.75
2023-03-22T12:47:45.416Z,24.02
2023-03-22T12:50:23.082Z,24.58
2023-03-22T12:52:57.038Z,25.37
2023-03-22T12:55:34.021Z,25.95
2023-03-22T12:58:01.921Z,25.49
2023-03-22T13:00:42.327Z,25.87
2023-03-22T13:03:28.828Z,26.24
2023-03-22T13:06:27.164Z,26.20
2023-03-22T13:09:17.110Z,26.78
2023-03-22T13:12:17.386Z,27.07
2023-03-22T13:14:52.687Z,27.10
2023-03-22T13:17:22.469Z,27.06
2023-03-22T13:20:11.478Z,26.37
2023-03-22T13:22:38.592Z,26.19
2023-03-22T13:25:16.719Z,26.05
2023-03-22T13:27:57.235Z,26.61
2023-03-22T13:30:34.644Z,26.96
2023-03-22T13:33:10.316Z,26.69
2023-03-22T13:36:07.273Z,26.38
2023-03-22T13:38:43.048Z,25.52
2023-03-22T13:41:27.406Z,25.50
2023-03-22T13:44:01.643Z,25.96
2023-03-22T13:46:46.770Z,26.08
2023-03-22T13:49:48.950Z,25.16
2023-03-22T13:53:01.700Z,24.66
2023-03-22T13:55:46.809Z,24.26
2023-03-22T13:58:48.379Z,23.34
2023-03-22T14:01:47.364Z,22.44
2023-03-22T14:04:22.654Z,22.70
2023-03-22T14:06:59.433Z,22.71
2023-03-22T14:09:44.594Z,21.97
2023-03-22T14:12:54.640Z,21.66
2023-03-22T14:15:28.376Z,21.75
2023-03-22T14:18:29.845Z,21.89
2023-03-22T14:21:05.288Z,21.63
